航空気象通報

ウインドサーファーのための航空気象通報による風予報です。

3/31-4/2の航空気象通報

2014年03月31日 23時55分43秒 | TAF

羽田空港
TAF RJTT 311105Z 3112/0118 33018KT 9999 FEW030
TEMPO 3112/3115 33023G33KT
BECMG 3118/3120 04010KT
BECMG 0100/0103 07005KT
BECMG 0106/0109 18014KT
日本時間31日21時-1日03時:330度から18ノットの風
但し、31日21-24時の間:ときどき330度から23ノット、突風33ノット
1日03-05時:風が変化
05-09時:040度から10ノットの風
09-12時:風が変化
12-15時:070度から5ノットの風
15-18時:風が変化
18時-2日03時:180度から14ノットの風

静岡空港
TAF RJNS 311106Z 3112/0118 36004KT 9999 FEW030 SCT050
BECMG 0100/0103 16010KT
BECMG 0109/0112 34004KT
日本時間31日21時-1日09時:360度から4ノットの風
09-12時:風が変化
12-18時:160度から10ノットの風
18-21時:風が変化
21時-2日03時:340度から4ノットの風

福岡空港
TAF RJFF 311107Z 3112/0118 29003KT 9999 FEW040
BECMG 3112/3114 14005KT
BECMG 0100/0103 02003KT
BECMG 0109/0112 14005KT
日本時間31日21時:290度から3ノットの風
21-23時:風が変化
23時-1日09時:140度から5ノットの風
09-12時:風が変化
12-18時:020度から3ノットの風
18-21時:風が変化
21時-2日03時:140度から5ノットの風

那覇空港
TAF ROAH 311108Z 3112/0118 11006KT 9999 FEW025 BKN045
BECMG 3116/3118 08010KT
TEMPO 3120/3124 3000 SHRA SCT008 BKN020 FEW025CB
日本時間31日21時-1日01時:110度から6ノットの風
01-03時:風が変化
03時-2日03時:080度から10ノットの風

但し、1日05-09時の間:ときどき

石垣空港
TAF ROIG 311111Z 3112/0118 10006KT 9999 FEW010 BKN020
BECMG 3113/3115 17006KT
BECMG 3120/3122 04008KT
TEMPO 3120/3123 3000 TSRA BKN006 BKN010 SCT025CB
日本時間31日21-22時:100度から6ノットの風
22-24時:風が変化
1日00-05時:170度から6ノットの風
05-07時:風が変化
07時-2日03時:040度から8ノットの風

但し、1日05-08時の間:ときどき

マウイのカフルイ空港
PHOG 311126Z 3112/0112 06012KT P6SM VCSH FEW030 BKN050
FM312000 06015G25KT P6SM FEW030 SCT050
FM010700 06012KT P6SM VCSH FEW030 BKN040 AMD LTD TO WX VIS AND WIND TIL 311600
ハワイ時間31日02-10時:060度から12ノットの風

10-21時:060度から15ノット、突風25ノット

21時-1日02時:060度から12ノットの風

サイパン空港
PGSN 311120Z 3112/0112 06009KT P6SM FEW020
マリアナ時間31日22時-1日22時:060度から9ノットの風

コメント
この記事をはてなブックマークに追加

3/30-4/1の航空気象通報

2014年03月30日 22時31分45秒 | TAF

羽田空港
TAF AMD RJTT 301133Z 3012/3118 32020G30KT 9999 FEW030
TEMPO 3012/3013 3000 TSRA FEW010 BKN015 FEW020CB
TEMPO 3020/3024 34030G40KT
BECMG 3103/3106 34010KT
TEMPO 3112/3118 34020G30KT
日本時間30日21時-31日12時:320度から20ノット、突風30ノット
但し、31日05-09時の間:ときどき340度から30ノット、突風40ノット
12-15時:風が変化
15時-1日03時:340度から10ノットの風
但し、30日21時-1日03時の間:ときどき340度から20ノット、突風30ノット

静岡空港
TAF RJNS 301105Z 3012/3118 27018KT 9999 FEW010 SCT030
TEMPO 3012/3019 27022G32KT
TEMPO 3103/3109 28018G28KT
BECMG 3112/3115 28008KT
日本時間30日21時-31日21時:270度から18ノットの風
但し、30日21時-31日04時の間:ときどき270度から22ノット、突風32ノット
但し、31日12時-18時の間:ときどき280度から18ノット、突風28ノット
21-24時:風が変化

福岡空港
TAF RJFF 301106Z 3012/3118 36007KT 9000 FEW030
BECMG 3015/3017 14003KT
BECMG 3100/3103 34010KT
BECMG 3109/3112 13003KT
日本時間30日21-24時:360度から7ノットの風
31日00-02時:風が変化
02-09時:140度から3ノットの風
09-12時:風が変化
12-18時:340度から10ノットの風
18-21時:風が変化
21時-1日03時:130度から3ノットの風

那覇空港
TAF ROAH 301107Z 3012/3118 02008KT 9999 FEW030
BECMG 3112/3115 10005KT
日本時間30日21時-31日21時:020度から8ノットの風
21-24時:風が変化
1日00-03時:100度から5ノットの風

石垣空港
TAF ROIG 301109Z 3012/3118 04013KT 9999 FEW030
BECMG 3103/3106 10008KT
日本時間30日21時-31日12時:040度から13ノットの風
12-15時:風が変化
15時-1日03時:100度から8ノットの風

マウイのカフルイ空港
PHOG 301307Z 3013/3112 VRB06KT P6SM VCSH SCT030 BKN045
FM302000 06016G24KT P6SM VCSH FEW030 BKN050
FM310600 05008KT P6SM FEW030 SCT050 AMD LTD TO WX VIS AND WIND TIL 301600
ハワイ時間30日02-10時:風向不定6ノットの風
10-20時:060度から16ノット、突風24ノット

20時-31日02時:050度から8ノットの風

サイパン空港
PGSN 301128Z 3012/3112 10009KT P6SM FEW025 SCT080
マリアナ時間30日22時-31日22時:100度から9ノットの風

コメント
この記事をはてなブックマークに追加

3/29-3/31の航空気象通報

2014年03月30日 00時22分19秒 | TAF

羽田空港
TAF RJTT 291111Z 2912/3018 21018KT 9999 FEW015 SCT030
BECMG 2921/2923 19020G30KT
TEMPO 3003/3006 19030G40KT 4000 SHRA FEW005 BKN008
TEMPO 3006/3009 19030G40KT 3000 TSRA FEW005 BKN008 FEW015CB
BECMG 3012/3015 32018KT
TEMPO 3015/3018 32020G30KT
日本時間29日21時-30日06時:210度から18ノットの風
06-08時:風が変化
08-21時:190度から20ノット、突風30ノット
但し、12-18時の間:ときどき200度から22ノット、突風32ノット
21-24時:風が変化
31日00-03時:320度から18ノットの風
但し、31日00-03時の間:ときどき320度から20ノット、突風30ノット

但し、30日12-15時の間:ときどき
但し、30日15-18時の間:ときどき

静岡空港
TAF RJNS 291111Z 2912/3018 26004KT 4000 -RA BR FEW005 BKN012
TEMPO 2915/2918 2000 -RA BR SCT005 BKN008
BECMG 2917/2919 18015KT
TEMPO 2918/2923 1500 RA BR FEW003 BKN005
TEMPO 2923/3006 18020G32KT 2000 +SHRA BR SCT005 BKN008
BECMG 3006/3009 27024G34KT 9999 NSW
日本時間29日21時-30日02時:260度から4ノットの風
02-04時:風が変化
04-15時:180度から15ノットの風
但し、30日08-15時の間:ときどき180度から20ノット、突風32ノット
15-18時:風が変化
18時-31日03時:270度から24ノット、突風34ノット
、30日15-18時の後、

福岡空港
TAF RJFF 291105Z 2912/3018 16011KT 8000 -SHRA FEW008 BKN010 BKN015
TEMPO 2912/2915 2000 TSRA BR FEW010 BKN015 BKN020 FEW025CB
BECMG 2915/2917 26008KT
TEMPO 2915/2924 4000 -SHRA BR FEW005 BKN008 BKN015
BECMG 2921/2923 34010KT
日本時間29日21-24時:160度から11ノットの風
30日00-02時:風が変化
02-06時:260度から8ノットの風
06-08時:風が変化
08時-31日03時:340度から10ノットの風

但し、29日21-24時の間:ときどき

那覇空港
TAF AMD ROAH 291207Z 2912/3018 19018KT 8000 -SHRA SCT008 BKN010
TEMPO 2912/2916 3000 TSRA SCT006 BKN008 FEW020CB
TEMPO 2916/2922 1500 +TSRA SCT006 BKN008 SCT020CB
BECMG 2920/2922 34016KT
日本時間29日21時-30日05時:190度から18ノットの風
05-07時:風が変化
07時-31日03時:340度から16ノットの風

但し、29日21時-30日07時の間:ときどき

石垣空港
TAF ROIG 291112Z 2912/3018 23008KT 2000 -SHRA VV001
TEMPO 2912/2915 0800 FG
BECMG 2915/2916 BKN003 BKN015
TEMPO 2915/2921 0800 TSRA BKN003 BKN015 FEW020CB
BECMG 2920/2922 36010KT 9999 NSW FEW010 BKN045
日本時間29日21時-30日05時:230度から8ノットの風
30日05-07時:風が変化
07時-31日03時:360度から10ノットの風
、30日05-07時の後、
但し、30日05-07時の間:ときどき

マウイのカフルイ空港
PHOG 291122Z 2912/3012 14005KT P6SM FEW030 SCT050
FM292000 05008KT P6SM VCSH SCT030 BKN050
FM300000 06012G18KT P6SM VCSH SCT030 BKN050
FM300800 05008KT P6SM VCSH SCT030 BKN050 AMD LTD TO WX VIS AND WIND TIL 291600
ハワイ時間29日02-10時:140度から5ノットの風

10-14時:050度から8ノットの風
14-22時:060度から12ノット、突風18ノット
22時-30日02時:050度から8ノットの風

サイパン空港
PGSN 291122Z 2912/3012 06009KT P6SM VCSH FEW020 SCT060
マリアナ時間29日22時-30日22時:060度から9ノットの風

コメント
この記事をはてなブックマークに追加

3/28-3/30の航空気象通報

2014年03月26日 21時40分43秒 | TAF
羽田空港
TAF RJTT 281105Z 2812/2918 20012KT 9999 FEW030
TEMPO 2906/2912 20018G28KT
日本時間28日21時-30日03時:200度から12ノットの風
但し、29日15-21時の間:ときどき200度から18ノット、突風28ノット


静岡空港
TAF RJNS 281105Z 2812/2918 27010KT 9999 FEW030
TEMPO 2900/2906 24016G26KT
BECMG 2912/2915 36005KT
TEMPO 2915/2918 4000 -RA BR FEW005 BKN008
日本時間28日21時-29日21時:270度から10ノットの風
但し、29日09-15時の間:ときどき240度から16ノット、突風26ノット
21-24時:風が変化
30日00-03時:360度から5ノットの風

但し、30日00-03時の間:ときどき

福岡空港
TAF RJFF 281109Z 2812/2918 33005KT 9999 FEW030
BECMG 2812/2814 15005KT
BECMG 2900/2903 15018KT
TEMPO 2906/2912 3500 SHRA BR
TEMPO 2912/2918 2000 SHRA BR
BECMG 2915/2918 36003KT
日本時間28日21時:330度から5ノットの風
21-23時:風が変化
23時-29日09時:150度から5ノットの風
09-12時:風が変化
12-24時:150度から18ノットの風
30日00-03時:風が変化
03時:360度から3ノットの風

但し、29日15時-30日03時の間:ときどき

那覇空港
TAF ROAH 281105Z 2812/2918 15012KT 9999 FEW015 SCT025
日本時間28日21時-30日03時:150度から12ノットの風


石垣空港
TAF ROIG 281111Z 2812/2918 15010KT 9999 SCT005 BKN015
BECMG 2915/2918 22011KT
日本時間28日21時-29日24時:150度から10ノットの風
30日00-03時:風が変化
03時:220度から11ノットの風


マウイのカフルイ空港
PHOG 281139Z 2812/2912 13005KT P6SM FEW050
FM282000 04010KT P6SM FEW030 BKN050
FM290200 04010KT P6SM VCSH SCT030 BKN045
FM291000 13005KT P6SM SCT030 SCT045 AMD LTD TO WX VIS AND WIND TIL 281600
ハワイ時間28日02-10時:130度から5ノットの風
10-16時:040度から10ノットの風

16-24時:040度から10ノットの風

29日00-02時:130度から5ノットの風


サイパン空港
PGSN 281128Z 2812/2912 06006KT P6SM FEW022
マリアナ時間28日22時-29日22時:060度から6ノットの風
コメント
この記事をはてなブックマークに追加

3/25-3/27の航空気象通報

2014年03月25日 22時52分52秒 | TAF

羽田空港
TAF RJTT 251106Z 2512/2618 20006KT 9999 FEW030
BECMG 2512/2514 36004KT
BECMG 2600/2603 18012KT
TEMPO 2606/2615 20022G32KT
TEMPO 2615/2618 3000 SHRA FEW004 BKN008
日本時間25日21時:200度から6ノットの風
21-23時:風が変化
23時-26日09時:360度から4ノットの風
09-12時:風が変化
12時-27日03時:180度から12ノットの風
但し、26日15-24時の間:ときどき200度から22ノット、突風32ノット

但し、27日00-03時の間:ときどき

静岡空港
TAF RJNS 251110Z 2512/2618 26010KT 9999 FEW020 SCT060
TEMPO 2603/2606 4000 -SHRA BR FEW003 BKN008
TEMPO 2606/2612 3000 SHRA BR FEW003 BKN008
TEMPO 2612/2618 23018G28KT 2000 TSRA BR FEW003 BKN005 FEW020CB
日本時間25日21時-27日03時:260度から10ノットの風
但し、26日21時-27日03時の間:ときどき230度から18ノット、突風28ノット

但し、26日12-21時の間:ときどき
但し、26日21時-27日03時の間:ときどき

福岡空港
TAF RJFF 251105Z 2512/2618 16008KT 7000 -SHRA FEW008 SCT015 BKN030
TEMPO 2512/2521 3000 SHRA BR
TEMPO 2521/2524 1500 +TSRA BR FEW008 SCT010 BKN020 FEW030CB
TEMPO 2600/2603 3000 SHRA BR
BECMG 2600/2603 30005KT
日本時間25日21時-26日09時:160度から8ノットの風
09-12時:風が変化
12時-27日03時:300度から5ノットの風

但し、26日06-09時の間:ときどき

那覇空港
TAF ROAH 251105Z 2512/2618 18012KT 9999 FEW015 SCT040
BECMG 2615/2618 24006KT
日本時間25日21時-26日24時:180度から12ノットの風
27日00-03時:240度から6ノットの風

石垣空港
TAF ROIG 251108Z 2512/2618 16008KT 9999 FEW010 BKN015
日本時間25日21時-27日03時:160度から8ノットの風

マウイのカフルイ空港
PHOG 251138Z 2512/2612 05013KT P6SM FEW025 SCT050
FM251500 05009KT P6SM FEW025 SCT045
FM251900 06018G28KT P6SM FEW030 SCT050
FM260600 06013KT P6SM FEW030 SCT050
FM260800 06007KT P6SM FEW025 SCT045 AMD LTD TO WX VIS AND WIND TIL 251600
ハワイ時間25日02-05時:050度から13ノットの風
05-09時:050度から9ノットの風
09-20時:060度から18ノット、突風28ノット
20-22時:060度から13ノットの風
22時-26日02時:060度から7ノットの風

サイパン空港
PGSN 251130Z 2512/2612 07017KT P6SM VCSH SCT020 BKN040
TEMPO 2512/2516 07017G27KT 3SM SHRA SCT010 BKN020 OVC030
マリアナ時間25日22時-26日22時:070度から17ノットの風
但し、25日22時-26日02時の間:ときどき070度から17ノット、突風27ノット

但し、25日22時-26日02時の間:ときどき

コメント
この記事をはてなブックマークに追加